Terminal Aerodrome Forecast
Issued by NWS Norman, OK

Home | Current Version | Previous Version | Text Only | Print | Product List | Glossary On
Versions: 1 2 3 4 5 6 7 8 9 10 11 12 13 14 15 16 17 18 19
000
FTUS44 KOUN 282320
TAFOKC
TAF
KOKC 282320Z 2900/2924 18008KT P6SM SCT250
     FM290900 16008KT P6SM BKN025
      TEMPO 2909/2913 P6SM OVC009
     FM291300 17009KT P6SM BKN012
      TEMPO 2916/2920 6SM -TSRA BR BKN010CB
     FM292000 16007KT P6SM BKN015
      TEMPO 2920/2924 6SM -TSRA BR BKN010CB=

USA.gov is the U.S. government's official web portal to all federal, state and local government web resources and services.